Fair River, Mississippi
Current Conditions -  °F | °C
As of 8:53 AM on Friday 19 Dec 2014 (Local Time) from KMCB Reporting Station
Overcast Overcast  
Wind Chill: 44°   Ceiling: 9500
Heat Index: 47°   Visibility: 10mi
Dew Point: 44°   Wind: 7mph
Humidity: 90%   Direction: 70°ENE
Pressure: 30.16"   Gusts: NA
Location:  31.5898°N, 90.4722°W
Report Text: KMCB 191453Z AUTO 07006KT 10SM OVC095 08/07 A3016 RMK AO2 RAE45 SLP210 P0002 60048 T00830067 50001
Loading
Personal Weather Stations






























Interactive Weather Map New forecast layout! Learn more

10-Day Weather Forecast

Advertisements
Track Severe Weather on mobile